Ripley, California
Current Conditions -  °F | °C
As of 5:52 PM on Saturday 20 Dec 2014 (Local Time) from KBLH Reporting Station
Clear Clear  
Wind Chill: 55°   Ceiling: Unl
Heat Index: 55°   Visibility: 10mi
Dew Point: 49°   Wind: 5mph
Humidity: 80%   Direction: 10°N
Pressure: 30.12"   Gusts: NA
Location:  33.5664°N, 114.628°W
Report Text: KBLH 210152Z AUTO 01004KT 10SM CLR 13/09 A3012 RMK AO2 SLP199 T01280094
Loading
Personal Weather Stations






























Interactive Weather Map New forecast layout! Learn more

10-Day Weather Forecast

Advertisements
Track Severe Weather on mobile